Time;durP1;ratioP1;P1;durP2;ratioP2;P2;SDS_P1;SDS_P2;PMS_P1;PMS_P2;Temp;Humidity;BMP_temperature;BMP_pressure;BME280_temperature;BME280_humidity;BME280_pressure;Samples;Min_cycle;Max_cycle;Signal;HPM_P1;HPM_P2
2023/05/26 00:02:31;;;;;;;4.60;3.25;;;;;;;;;;8297590;28;20029;-61
2023/05/26 00:06:31;;;;;;;4.45;3.33;;;;;;;;;;8296339;28;20031;-61
2023/05/26 00:10:31;;;;;;;4.93;3.05;;;;;;;;;;8298719;28;20040;-61
2023/05/26 00:14:31;;;;;;;7.25;3.60;;;;;;;;;;8300485;28;20040;-61
2023/05/26 00:18:33;;;;;;;5.03;3.25;;;;;;;;;;8299194;28;20892;-61
2023/05/26 00:22:35;;;;;;;5.20;2.90;;;;;;;;;;8300266;28;20588;-61
2023/05/26 00:26:35;;;;;;;4.57;3.30;;;;;;;;;;8300014;28;20025;-61
2023/05/26 00:30:35;;;;;;;5.47;3.10;;;;;;;;;;8300000;28;20580;-61
2023/05/26 00:34:35;;;;;;;5.80;3.23;;;;;;;;;;8315103;28;20103;-61
2023/05/26 00:38:35;;;;;;;5.93;3.30;;;;;;;;;;8297486;28;20053;-60
2023/05/26 00:42:36;;;;;;;6.07;3.22;;;;;;;;;;8301266;28;20025;-60
2023/05/26 00:46:36;;;;;;;6.07;3.00;;;;;;;;;;8299215;28;20114;-61
2023/05/26 00:50:38;;;;;;;6.77;3.60;;;;;;;;;;8300632;28;20064;-61
2023/05/26 00:54:38;;;;;;;5.20;3.35;;;;;;;;;;8299664;28;20035;-61
2023/05/26 00:58:39;;;;;;;8.02;3.72;;;;;;;;;;8298366;28;20037;-60
2023/05/26 01:02:39;;;;;;;9.57;3.40;;;;;;;;;;8299046;28;20029;-61
2023/05/26 01:06:40;;;;;;;5.20;3.58;;;;;;;;;;8300150;28;20896;-61
2023/05/26 01:10:41;;;;;;;5.22;3.40;;;;;;;;;;8297643;28;20037;-61
2023/05/26 01:14:54;;;;;;;6.47;4.07;;;;;;;;;;8296001;28;20025;-61
2023/05/26 01:19:06;;;;;;;7.57;4.37;;;;;;;;;;8296575;28;20041;-61
2023/05/26 01:23:25;;;;;;;9.13;4.00;;;;;;;;;;8300286;28;20025;-61
2023/05/26 01:27:37;;;;;;;6.70;4.25;;;;;;;;;;8298889;28;20106;-61
2023/05/26 01:31:39;;;;;;;7.70;3.53;;;;;;;;;;8297726;28;20091;-61
2023/05/26 01:35:39;;;;;;;5.15;3.70;;;;;;;;;;8297046;28;20925;-61
2023/05/26 01:39:39;;;;;;;9.05;4.40;;;;;;;;;;8299351;28;20565;-61
2023/05/26 01:43:58;;;;;;;8.00;4.10;;;;;;;;;;8296621;28;20025;-61
2023/05/26 01:48:02;;;;;;;6.78;3.97;;;;;;;;;;8296600;28;20041;-60
2023/05/26 01:52:04;;;;;;;7.13;4.05;;;;;;;;;;8297631;28;20461;-60
2023/05/26 01:56:05;;;;;;;6.18;3.55;;;;;;;;;;8297732;28;20017;-61
2023/05/26 02:00:06;;;;;;;3.72;3.08;;;;;;;;;;8287779;28;20095;-61
2023/05/26 02:04:06;;;;;;;6.22;3.67;;;;;;;;;;8292747;28;20087;-61
2023/05/26 02:08:06;;;;;;;6.03;3.88;;;;;;;;;;8295918;28;20078;-60
2023/05/26 02:12:06;;;;;;;6.00;3.67;;;;;;;;;;8298285;28;20152;-61
2023/05/26 02:16:07;;;;;;;6.80;4.10;;;;;;;;;;8297291;28;20969;-61
2023/05/26 02:20:09;;;;;;;7.85;4.18;;;;;;;;;;8298361;28;21352;-61
2023/05/26 02:24:09;;;;;;;8.93;4.00;;;;;;;;;;8296258;28;20027;-61
2023/05/26 02:28:09;;;;;;;6.97;3.58;;;;;;;;;;8296301;28;20128;-60
2023/05/26 02:32:10;;;;;;;7.78;4.43;;;;;;;;;;8296558;28;20388;-60
2023/05/26 02:36:11;;;;;;;7.55;4.40;;;;;;;;;;8301470;28;20029;-60
2023/05/26 02:40:12;;;;;;;6.45;4.50;;;;;;;;;;8296007;28;20037;-61
2023/05/26 02:44:13;;;;;;;7.13;3.90;;;;;;;;;;8296939;28;20102;-60
2023/05/26 02:48:13;;;;;;;6.93;3.55;;;;;;;;;;8295986;28;20071;-60
2023/05/26 02:52:13;;;;;;;4.93;3.45;;;;;;;;;;8299220;28;20029;-60
2023/05/26 02:56:14;;;;;;;6.40;3.97;;;;;;;;;;8295628;28;20111;-60
2023/05/26 03:00:14;;;;;;;8.10;4.00;;;;;;;;;;8298334;28;20032;-60
2023/05/26 03:04:14;;;;;;;8.80;4.13;;;;;;;;;;8298156;28;20486;-60
2023/05/26 03:08:15;;;;;;;8.38;4.13;;;;;;;;;;8296581;28;20604;-61
2023/05/26 03:12:15;;;;;;;8.18;3.88;;;;;;;;;;8297090;28;20029;-60
2023/05/26 03:16:15;;;;;;;7.87;4.07;;;;;;;;;;8298020;28;20045;-61
2023/05/26 03:20:16;;;;;;;6.22;4.00;;;;;;;;;;8294189;28;20291;-60
2023/05/26 03:24:16;;;;;;;7.18;4.22;;;;;;;;;;8296348;28;20052;-61
2023/05/26 03:28:16;;;;;;;7.22;4.07;;;;;;;;;;8294616;28;20043;-61
2023/05/26 03:32:16;;;;;;;5.15;4.07;;;;;;;;;;8297444;28;20033;-61
2023/05/26 03:36:17;;;;;;;7.97;4.45;;;;;;;;;;8295506;28;20073;-60
2023/05/26 03:40:18;;;;;;;6.32;4.10;;;;;;;;;;8296295;28;20113;-60
2023/05/26 03:44:20;;;;;;;6.55;4.00;;;;;;;;;;8296945;28;20104;-60
2023/05/26 03:48:21;;;;;;;8.73;4.18;;;;;;;;;;8299896;28;20120;-61
2023/05/26 03:52:21;;;;;;;7.93;4.15;;;;;;;;;;8298534;28;20025;-61
2023/05/26 03:56:21;;;;;;;8.43;4.28;;;;;;;;;;8297039;28;20134;-61
2023/05/26 04:00:22;;;;;;;8.17;4.57;;;;;;;;;;8299757;28;20029;-61
2023/05/26 04:04:22;;;;;;;8.50;4.78;;;;;;;;;;8299862;28;20025;-61
2023/05/26 04:08:22;;;;;;;11.38;4.32;;;;;;;;;;8299751;28;20569;-61
2023/05/26 04:12:22;;;;;;;11.40;4.37;;;;;;;;;;8301238;28;20025;-60
2023/05/26 04:16:23;;;;;;;7.97;4.75;;;;;;;;;;8296908;28;20044;-61
2023/05/26 04:20:23;;;;;;;6.97;4.50;;;;;;;;;;8300398;28;20718;-60
2023/05/26 04:24:23;;;;;;;11.48;5.07;;;;;;;;;;8300071;28;20849;-61
2023/05/26 04:28:24;;;;;;;8.27;3.97;;;;;;;;;;8297188;28;20021;-61
2023/05/26 04:32:25;;;;;;;12.05;4.43;;;;;;;;;;8300650;28;20536;-61
2023/05/26 04:36:25;;;;;;;9.35;4.30;;;;;;;;;;8300191;28;20651;-60
2023/05/26 04:40:25;;;;;;;8.48;4.03;;;;;;;;;;8293119;28;20033;-61
2023/05/26 04:44:25;;;;;;;6.80;4.35;;;;;;;;;;8300211;28;20021;-61
2023/05/26 04:48:26;;;;;;;7.13;3.97;;;;;;;;;;8297410;28;20830;-61
2023/05/26 04:52:26;;;;;;;10.45;3.97;;;;;;;;;;8300401;28;20768;-60
2023/05/26 04:56:27;;;;;;;8.98;4.15;;;;;;;;;;8298316;28;20054;-61
2023/05/26 05:00:31;;;;;;;7.13;4.32;;;;;;;;;;8298803;28;20045;-61
2023/05/26 05:04:31;;;;;;;7.30;3.80;;;;;;;;;;8299064;28;20393;-60
2023/05/26 05:08:31;;;;;;;7.00;3.75;;;;;;;;;;8295013;28;20137;-61
2023/05/26 05:12:31;;;;;;;8.23;4.93;;;;;;;;;;8297855;28;20037;-61
2023/05/26 05:16:31;;;;;;;6.55;3.92;;;;;;;;;;8299856;28;20033;-61
2023/05/26 05:20:31;;;;;;;11.13;4.88;;;;;;;;;;8297841;28;20549;-61
2023/05/26 05:24:32;;;;;;;7.70;3.72;;;;;;;;;;8296969;28;20025;-61
2023/05/26 05:28:32;;;;;;;6.95;3.90;;;;;;;;;;8294167;28;20033;-61
2023/05/26 05:32:32;;;;;;;8.52;4.10;;;;;;;;;;8296188;28;20045;-61
2023/05/26 05:36:33;;;;;;;6.03;3.92;;;;;;;;;;8298799;28;20907;-61
2023/05/26 05:40:33;;;;;;;14.13;4.40;;;;;;;;;;8295290;28;20056;-61
2023/05/26 05:44:34;;;;;;;6.65;3.90;;;;;;;;;;8296288;28;20025;-61
2023/05/26 05:48:34;;;;;;;6.88;4.38;;;;;;;;;;8295611;28;20056;-61
2023/05/26 05:52:34;;;;;;;9.80;4.10;;;;;;;;;;8297571;28;20044;-61
2023/05/26 05:56:34;;;;;;;8.77;4.60;;;;;;;;;;8298632;28;20021;-61
2023/05/26 06:00:34;;;;;;;8.90;4.07;;;;;;;;;;8299501;28;20160;-61
2023/05/26 06:04:35;;;;;;;9.85;4.30;;;;;;;;;;8296951;28;20033;-61
2023/05/26 06:08:35;;;;;;;7.60;3.78;;;;;;;;;;8296532;28;20030;-61
2023/05/26 06:12:35;;;;;;;8.53;3.90;;;;;;;;;;8294141;28;20109;-61
2023/05/26 06:16:35;;;;;;;7.10;4.30;;;;;;;;;;8296120;28;20080;-61
2023/05/26 06:20:35;;;;;;;9.20;4.00;;;;;;;;;;8296518;28;20474;-61
2023/05/26 06:24:36;;;;;;;7.53;3.78;;;;;;;;;;8295434;28;20029;-61
2023/05/26 06:28:36;;;;;;;8.35;4.30;;;;;;;;;;8295916;28;20053;-62
2023/05/26 06:32:36;;;;;;;9.07;4.18;;;;;;;;;;8296366;28;20896;-62
2023/05/26 06:36:36;;;;;;;7.43;3.80;;;;;;;;;;8296178;28;20581;-62
2023/05/26 06:40:36;;;;;;;7.15;3.90;;;;;;;;;;8293691;28;20041;-62
2023/05/26 06:44:36;;;;;;;8.75;4.38;;;;;;;;;;8296126;28;20013;-61
2023/05/26 06:48:37;;;;;;;8.07;3.92;;;;;;;;;;8296108;28;20041;-62
2023/05/26 06:52:37;;;;;;;5.55;3.63;;;;;;;;;;8296365;28;20139;-62
2023/05/26 06:56:37;;;;;;;7.35;4.07;;;;;;;;;;8294676;28;20113;-62
2023/05/26 07:00:38;;;;;;;8.23;3.85;;;;;;;;;;8296638;28;20069;-62
2023/05/26 07:04:38;;;;;;;10.65;4.85;;;;;;;;;;8295611;28;20033;-62
2023/05/26 07:08:38;;;;;;;8.33;4.60;;;;;;;;;;8297773;28;20022;-62
2023/05/26 07:12:40;;;;;;;8.48;4.70;;;;;;;;;;8294737;28;20021;-62
2023/05/26 07:16:40;;;;;;;7.55;4.50;;;;;;;;;;8294011;28;20041;-62
2023/05/26 07:20:40;;;;;;;9.50;5.13;;;;;;;;;;8297260;28;20021;-62
2023/05/26 07:24:40;;;;;;;8.15;4.13;;;;;;;;;;8301817;28;20037;-62
2023/05/26 07:28:53;;;;;;;10.35;4.60;;;;;;;;;;8303136;28;20721;-62
2023/05/26 07:32:54;;;;;;;10.07;4.68;;;;;;;;;;8301984;28;20037;-62
2023/05/26 07:36:54;;;;;;;8.52;4.70;;;;;;;;;;8302608;28;20796;-62
2023/05/26 07:40:54;;;;;;;10.93;4.53;;;;;;;;;;8299472;28;20863;-62
2023/05/26 07:44:55;;;;;;;10.93;4.05;;;;;;;;;;8308982;28;20117;-62
2023/05/26 07:48:55;;;;;;;8.75;4.25;;;;;;;;;;8298761;28;20052;-62
2023/05/26 07:52:55;;;;;;;7.77;3.97;;;;;;;;;;8299826;28;20115;-62
2023/05/26 07:56:56;;;;;;;9.07;4.73;;;;;;;;;;8302066;28;20607;-62
2023/05/26 08:00:56;;;;;;;11.40;4.78;;;;;;;;;;8300804;28;20453;-63
2023/05/26 08:04:56;;;;;;;7.50;4.32;;;;;;;;;;8289713;28;20060;-62
2023/05/26 08:08:56;;;;;;;13.15;4.90;;;;;;;;;;8294074;28;20127;-62
2023/05/26 08:12:56;;;;;;;10.20;4.63;;;;;;;;;;8296360;28;20393;-62
2023/05/26 08:16:58;;;;;;;8.73;4.50;;;;;;;;;;8296986;28;20454;-62
2023/05/26 08:20:58;;;;;;;10.30;4.50;;;;;;;;;;8294954;28;20409;-62
2023/05/26 08:24:58;;;;;;;6.95;4.05;;;;;;;;;;8294067;28;20025;-62
2023/05/26 08:28:58;;;;;;;8.48;4.38;;;;;;;;;;8296709;28;20098;-62
2023/05/26 08:32:58;;;;;;;12.15;4.70;;;;;;;;;;8295231;28;20033;-62
2023/05/26 08:36:59;;;;;;;10.23;4.68;;;;;;;;;;8292931;28;20126;-62
2023/05/26 08:41:00;;;;;;;12.05;4.53;;;;;;;;;;8297654;28;20539;-62
2023/05/26 08:45:01;;;;;;;9.40;4.68;;;;;;;;;;8296654;28;20021;-62
2023/05/26 08:49:02;;;;;;;9.38;4.80;;;;;;;;;;8297508;28;20572;-63
2023/05/26 08:53:03;;;;;;;9.07;4.30;;;;;;;;;;8292905;28;20029;-62
2023/05/26 08:57:06;;;;;;;9.67;4.30;;;;;;;;;;8294373;28;20478;-62
2023/05/26 09:01:07;;;;;;;9.80;4.07;;;;;;;;;;8289263;28;20409;-62
2023/05/26 09:05:08;;;;;;;14.00;4.47;;;;;;;;;;8291031;28;21036;-63
2023/05/26 09:09:08;;;;;;;9.60;4.25;;;;;;;;;;8259741;28;20491;-62
2023/05/26 09:13:09;;;;;;;12.57;4.53;;;;;;;;;;8292348;28;20025;-62
2023/05/26 09:17:13;;;;;;;12.38;4.53;;;;;;;;;;8291213;28;20127;-62
2023/05/26 09:21:13;;;;;;;9.50;4.30;;;;;;;;;;8277984;28;20932;-62
2023/05/26 09:25:15;;;;;;;13.82;4.20;;;;;;;;;;8289633;28;20519;-62
2023/05/26 09:29:15;;;;;;;;;;;;;;;;;;8300589;28;20022;-63
2023/05/26 09:33:16;;;;;;;9.68;4.43;;;;;;;;;;8288772;28;19917;-62
2023/05/26 09:37:17;;;;;;;8.57;4.07;;;;;;;;;;8291916;28;20078;-62
2023/05/26 09:41:20;;;;;;;9.02;4.00;;;;;;;;;;8290766;28;20024;-62
2023/05/26 09:45:21;;;;;;;10.60;4.18;;;;;;;;;;8287466;28;20021;-62
2023/05/26 09:49:21;;;;;;;15.30;4.57;;;;;;;;;;8289226;28;20050;-63
2023/05/26 09:53:21;;;;;;;13.68;4.03;;;;;;;;;;8290927;28;20032;-62
2023/05/26 09:57:21;;;;;;;8.48;4.20;;;;;;;;;;8285212;28;20353;-63
2023/05/26 10:01:22;;;;;;;10.00;4.10;;;;;;;;;;8284636;28;20484;-62
2023/05/26 10:05:22;;;;;;;8.67;4.10;;;;;;;;;;8287663;28;20029;-62
2023/05/26 10:09:23;;;;;;;13.57;4.70;;;;;;;;;;8289776;28;20372;-63
2023/05/26 10:13:23;;;;;;;14.35;4.63;;;;;;;;;;8289118;28;20071;-63
2023/05/26 10:17:25;;;;;;;10.90;4.30;;;;;;;;;;8288627;28;20468;-62
2023/05/26 10:21:27;;;;;;;9.77;4.20;;;;;;;;;;8287484;28;20614;-62
2023/05/26 10:25:27;;;;;;;;;;;;;;;;;;8289864;28;20025;-62
2023/05/26 10:29:34;;;;;;;9.65;4.30;;;;;;;;;;8287843;28;19920;-63
2023/05/26 10:33:42;;;;;;;11.05;4.28;;;;;;;;;;8284110;28;20045;-62
2023/05/26 10:37:45;;;;;;;8.63;4.10;;;;;;;;;;8287973;28;20052;-62
2023/05/26 10:41:49;;;;;;;8.95;3.70;;;;;;;;;;8289043;28;20044;-62
2023/05/26 10:45:55;;;;;;;7.93;4.20;;;;;;;;;;8294130;28;20981;-61
2023/05/26 10:49:57;;;;;;;12.15;4.82;;;;;;;;;;8294943;28;20222;-61
2023/05/26 10:53:57;;;;;;;10.18;4.40;;;;;;;;;;8298244;28;20033;-62
2023/05/26 10:58:16;;;;;;;9.68;4.35;;;;;;;;;;8301054;28;20028;-62
2023/05/26 11:02:19;;;;;;;8.88;4.47;;;;;;;;;;8292412;28;20068;-62
2023/05/26 11:06:35;;;;;;;9.20;4.20;;;;;;;;;;8294232;28;20503;-62
2023/05/26 11:10:54;;;;;;;7.03;4.05;;;;;;;;;;8292975;28;20798;-62
2023/05/26 11:14:54;;;;;;;9.40;4.10;;;;;;;;;;8291947;28;20029;-64
2023/05/26 11:18:57;;;;;;;9.30;4.10;;;;;;;;;;8292206;28;20041;-62
2023/05/26 11:22:57;;;;;;;10.80;4.10;;;;;;;;;;8294531;28;21152;-62
2023/05/26 11:27:03;;;;;;;9.68;4.30;;;;;;;;;;8292437;28;20071;-62
2023/05/26 11:31:10;;;;;;;8.50;4.07;;;;;;;;;;8307207;28;20055;-62
2023/05/26 11:35:23;;;;;;;8.48;3.75;;;;;;;;;;8289166;28;20751;-62
2023/05/26 11:39:24;;;;;;;9.45;3.70;;;;;;;;;;8297649;28;20250;-62
2023/05/26 11:43:24;;;;;;;8.80;3.92;;;;;;;;;;8293421;28;20497;-62
2023/05/26 11:47:24;;;;;;;11.40;3.50;;;;;;;;;;8289638;28;20044;-62
2023/05/26 11:51:24;;;;;;;9.97;3.53;;;;;;;;;;8290023;28;20367;-62
2023/05/26 11:55:25;;;;;;;9.52;3.85;;;;;;;;;;8289317;28;20397;-62
2023/05/26 11:59:25;;;;;;;9.75;3.90;;;;;;;;;;8295152;28;20036;-62
2023/05/26 12:03:25;;;;;;;6.83;3.20;;;;;;;;;;8293170;28;20092;-63
2023/05/26 12:07:26;;;;;;;11.38;3.97;;;;;;;;;;8286844;28;20025;-63
2023/05/26 12:11:34;;;;;;;6.82;3.17;;;;;;;;;;8305387;28;20021;-63
2023/05/26 12:15:34;;;;;;;6.22;3.00;;;;;;;;;;8287842;28;20107;-63
2023/05/26 12:19:34;;;;;;;7.13;2.90;;;;;;;;;;8290439;28;20079;-63
2023/05/26 12:23:35;;;;;;;7.28;3.08;;;;;;;;;;8300720;28;20059;-62
2023/05/26 12:27:38;;;;;;;6.13;2.65;;;;;;;;;;8296393;28;20021;-63
2023/05/26 12:31:43;;;;;;;8.35;2.70;;;;;;;;;;8297776;28;20033;-63
2023/05/26 12:35:44;;;;;;;7.30;2.83;;;;;;;;;;8298245;28;20146;-63
2023/05/26 12:39:44;;;;;;;5.63;2.53;;;;;;;;;;8313635;28;20020;-63
2023/05/26 12:43:45;;;;;;;8.93;3.30;;;;;;;;;;8296690;28;21955;-63
2023/05/26 12:47:45;;;;;;;6.75;3.20;;;;;;;;;;8260323;28;1068834;-63
2023/05/26 12:51:45;;;;;;;9.23;2.72;;;;;;;;;;8288409;28;20029;-63
2023/05/26 12:55:46;;;;;;;5.45;2.85;;;;;;;;;;8293287;28;20026;-63
2023/05/26 12:59:46;;;;;;;7.18;3.03;;;;;;;;;;8286545;28;20036;-62
2023/05/26 13:03:47;;;;;;;5.78;2.75;;;;;;;;;;8287460;28;20033;-63
2023/05/26 13:07:47;;;;;;;7.50;3.10;;;;;;;;;;8287771;28;20029;-64
2023/05/26 13:11:48;;;;;;;8.20;3.22;;;;;;;;;;8292602;28;20398;-63
2023/05/26 13:15:48;;;;;;;9.20;3.43;;;;;;;;;;8289383;28;20036;-63
2023/05/26 13:19:48;;;;;;;6.90;3.10;;;;;;;;;;8292352;28;20686;-63
2023/05/26 13:23:51;;;;;;;9.13;3.17;;;;;;;;;;8293605;28;20255;-62
2023/05/26 13:27:51;;;;;;;;;;;;;;;;;;8290955;28;20275;-63
2023/05/26 13:31:51;;;;;;;7.75;3.10;;;;;;;;;;8293251;28;19916;-63
2023/05/26 13:35:51;;;;;;;7.93;3.10;;;;;;;;;;8294444;28;20017;-62
2023/05/26 13:39:51;;;;;;;11.43;3.77;;;;;;;;;;8298414;28;20561;-63
2023/05/26 13:43:51;;;;;;;9.50;3.40;;;;;;;;;;8291943;28;20029;-63
2023/05/26 13:47:52;;;;;;;9.55;3.60;;;;;;;;;;8288552;28;20142;-63
2023/05/26 13:51:52;;;;;;;8.63;3.63;;;;;;;;;;8289459;28;20529;-62
2023/05/26 13:55:52;;;;;;;8.73;3.22;;;;;;;;;;8290472;28;20030;-61
2023/05/26 13:59:53;;;;;;;9.07;3.60;;;;;;;;;;8288269;28;20029;-61
2023/05/26 14:03:53;;;;;;;6.82;3.03;;;;;;;;;;8288465;28;20034;-61
2023/05/26 14:07:54;;;;;;;9.15;3.25;;;;;;;;;;8287520;28;20021;-62
2023/05/26 14:11:54;;;;;;;7.53;3.13;;;;;;;;;;8286858;28;20490;-62
2023/05/26 14:15:55;;;;;;;8.48;3.42;;;;;;;;;;8285190;28;20156;-62
2023/05/26 14:19:55;;;;;;;7.73;3.30;;;;;;;;;;8284585;28;20387;-62
2023/05/26 14:23:55;;;;;;;9.07;3.25;;;;;;;;;;8284617;28;20771;-62
2023/05/26 14:27:55;;;;;;;9.13;3.28;;;;;;;;;;8284938;28;20021;-62
2023/05/26 14:31:55;;;;;;;9.98;3.00;;;;;;;;;;8285142;28;20333;-62
2023/05/26 14:35:56;;;;;;;7.72;3.00;;;;;;;;;;8286365;28;20252;-61
2023/05/26 14:39:56;;;;;;;10.23;3.70;;;;;;;;;;8284772;28;20191;-63
2023/05/26 14:43:56;;;;;;;13.17;3.60;;;;;;;;;;8284022;28;20400;-62
2023/05/26 14:47:56;;;;;;;5.43;2.85;;;;;;;;;;8284331;28;20049;-62
2023/05/26 14:51:56;;;;;;;7.93;3.10;;;;;;;;;;8283969;28;20394;-62
2023/05/26 14:55:58;;;;;;;7.75;2.90;;;;;;;;;;8285684;28;20036;-62
2023/05/26 14:59:58;;;;;;;9.13;3.38;;;;;;;;;;8289400;28;20040;-62
2023/05/26 15:03:58;;;;;;;7.82;3.10;;;;;;;;;;8287507;28;20917;-63
2023/05/26 15:07:59;;;;;;;8.00;3.33;;;;;;;;;;8288609;28;20245;-62
2023/05/26 15:11:59;;;;;;;10.57;3.10;;;;;;;;;;8288590;28;21122;-62
2023/05/26 15:15:59;;;;;;;10.43;3.20;;;;;;;;;;8289745;28;20489;-62
2023/05/26 15:19:59;;;;;;;11.70;3.33;;;;;;;;;;8289740;28;20530;-62
2023/05/26 15:23:59;;;;;;;12.63;3.60;;;;;;;;;;8289386;28;20025;-62
2023/05/26 15:28:00;;;;;;;8.75;3.70;;;;;;;;;;8288920;28;20020;-62
2023/05/26 15:32:00;;;;;;;11.05;3.00;;;;;;;;;;8288984;28;20573;-62
2023/05/26 15:36:01;;;;;;;9.90;3.55;;;;;;;;;;8290555;28;20391;-62
2023/05/26 15:40:01;;;;;;;8.10;3.50;;;;;;;;;;8289674;28;20076;-62
2023/05/26 15:44:02;;;;;;;9.57;2.83;;;;;;;;;;8294917;28;20025;-62
2023/05/26 15:48:03;;;;;;;14.18;3.53;;;;;;;;;;8291893;28;20720;-61
2023/05/26 15:52:03;;;;;;;9.13;3.25;;;;;;;;;;8291789;28;20041;-62
2023/05/26 15:56:03;;;;;;;10.10;3.20;;;;;;;;;;8292118;28;20037;-62
2023/05/26 16:00:04;;;;;;;8.75;3.38;;;;;;;;;;8284613;28;20029;-62
2023/05/26 16:04:05;;;;;;;12.02;3.40;;;;;;;;;;8289867;28;20026;-62
2023/05/26 16:08:05;;;;;;;9.95;3.35;;;;;;;;;;8296309;28;20033;-63
2023/05/26 16:12:06;;;;;;;8.27;3.28;;;;;;;;;;8297303;28;20677;-62
2023/05/26 16:16:06;;;;;;;7.03;3.30;;;;;;;;;;8304755;28;20037;-62
2023/05/26 16:20:07;;;;;;;10.15;3.60;;;;;;;;;;8289701;28;20025;-62
2023/05/26 16:24:08;;;;;;;11.30;3.60;;;;;;;;;;8290162;28;20764;-62
2023/05/26 16:28:08;;;;;;;10.82;3.45;;;;;;;;;;8287424;28;20655;-62
2023/05/26 16:32:08;;;;;;;9.20;3.20;;;;;;;;;;8287793;28;20446;-62
2023/05/26 16:36:09;;;;;;;11.13;3.20;;;;;;;;;;8287480;28;20025;-62
2023/05/26 16:40:09;;;;;;;9.43;3.35;;;;;;;;;;8287720;28;20428;-62
2023/05/26 16:44:09;;;;;;;11.02;3.78;;;;;;;;;;8288506;28;20517;-62
2023/05/26 16:48:10;;;;;;;9.20;3.20;;;;;;;;;;8287036;28;20439;-62
2023/05/26 16:52:11;;;;;;;11.27;3.55;;;;;;;;;;8286408;28;20238;-63
2023/05/26 16:56:11;;;;;;;7.30;3.13;;;;;;;;;;8286453;28;20369;-62
2023/05/26 17:00:11;;;;;;;9.52;3.17;;;;;;;;;;8285580;28;20037;-62
2023/05/26 17:04:12;;;;;;;8.57;3.45;;;;;;;;;;8285579;28;20593;-61
2023/05/26 17:08:12;;;;;;;10.23;3.90;;;;;;;;;;8284854;28;20299;-61
2023/05/26 17:12:12;;;;;;;11.27;3.77;;;;;;;;;;8287970;28;20024;-62
2023/05/26 17:16:12;;;;;;;10.75;3.58;;;;;;;;;;8288054;28;20340;-62
2023/05/26 17:20:13;;;;;;;10.90;3.43;;;;;;;;;;8287397;28;20044;-62
2023/05/26 17:24:13;;;;;;;10.48;4.22;;;;;;;;;;8290522;28;20025;-62
2023/05/26 17:28:14;;;;;;;10.30;3.50;;;;;;;;;;8286368;28;20324;-62
2023/05/26 17:32:17;;;;;;;11.37;3.80;;;;;;;;;;8288274;28;20445;-62
2023/05/26 17:36:17;;;;;;;10.48;3.75;;;;;;;;;;8288786;28;20732;-62
2023/05/26 17:40:18;;;;;;;13.93;3.78;;;;;;;;;;8287674;28;20032;-61
2023/05/26 17:44:19;;;;;;;10.15;3.42;;;;;;;;;;8284152;28;20013;-62
2023/05/26 17:48:19;;;;;;;9.63;3.42;;;;;;;;;;8283659;28;20510;-62
2023/05/26 17:52:20;;;;;;;13.55;3.22;;;;;;;;;;8284489;28;20511;-61
2023/05/26 17:56:21;;;;;;;11.75;3.60;;;;;;;;;;8285446;28;20245;-62
2023/05/26 18:00:21;;;;;;;14.23;3.58;;;;;;;;;;8284151;28;20310;-62
2023/05/26 18:04:21;;;;;;;13.73;3.95;;;;;;;;;;8285384;28;20009;-62
2023/05/26 18:08:21;;;;;;;10.88;3.50;;;;;;;;;;8299136;28;20477;-61
2023/05/26 18:12:21;;;;;;;13.25;4.10;;;;;;;;;;8288159;28;20025;-62
2023/05/26 18:16:24;;;;;;;11.60;3.75;;;;;;;;;;8286274;28;20049;-62
2023/05/26 18:20:25;;;;;;;13.73;3.72;;;;;;;;;;8284860;28;20029;-61
2023/05/26 18:24:25;;;;;;;12.10;3.28;;;;;;;;;;8287828;28;20458;-62
2023/05/26 18:28:25;;;;;;;11.10;3.40;;;;;;;;;;8284393;28;20529;-62
2023/05/26 18:32:26;;;;;;;8.75;3.25;;;;;;;;;;8284173;28;20095;-62
2023/05/26 18:36:26;;;;;;;11.82;3.78;;;;;;;;;;8285085;28;20128;-62
2023/05/26 18:40:26;;;;;;;13.10;3.90;;;;;;;;;;8284582;28;20064;-62
2023/05/26 18:44:26;;;;;;;11.35;3.55;;;;;;;;;;8285831;28;20025;-61
2023/05/26 18:48:27;;;;;;;8.90;3.15;;;;;;;;;;8284247;28;20572;-61
2023/05/26 18:52:27;;;;;;;16.02;3.67;;;;;;;;;;8285920;28;20387;-61
2023/05/26 18:56:27;;;;;;;14.25;3.80;;;;;;;;;;8283429;28;20304;-62
2023/05/26 19:00:28;;;;;;;10.93;3.58;;;;;;;;;;8283646;28;20091;-62
2023/05/26 19:04:28;;;;;;;11.73;3.88;;;;;;;;;;8281895;28;20025;-62
2023/05/26 19:08:28;;;;;;;15.93;3.47;;;;;;;;;;8283051;28;20546;-62
2023/05/26 19:12:29;;;;;;;12.90;4.10;;;;;;;;;;8284722;28;20044;-62
2023/05/26 19:16:30;;;;;;;12.13;3.60;;;;;;;;;;8285128;28;20044;-62
2023/05/26 19:20:30;;;;;;;9.73;3.38;;;;;;;;;;8289956;28;21851;-62
2023/05/26 19:24:30;;;;;;;12.40;3.63;;;;;;;;;;8294682;28;20147;-62
2023/05/26 19:28:31;;;;;;;15.82;3.85;;;;;;;;;;8289535;28;20044;-62
2023/05/26 19:32:31;;;;;;;13.80;3.90;;;;;;;;;;8291387;28;20037;-62
2023/05/26 19:36:31;;;;;;;8.68;3.15;;;;;;;;;;8291744;28;20434;-62
2023/05/26 19:40:31;;;;;;;13.38;3.65;;;;;;;;;;8290603;28;20029;-62
2023/05/26 19:44:32;;;;;;;11.68;3.53;;;;;;;;;;8288525;28;20055;-62
2023/05/26 19:48:32;;;;;;;10.57;3.10;;;;;;;;;;8287496;28;20029;-61
2023/05/26 19:52:32;;;;;;;11.25;3.47;;;;;;;;;;8291842;28;20061;-62
2023/05/26 19:56:32;;;;;;;10.07;2.95;;;;;;;;;;8285382;28;20475;-61
2023/05/26 20:00:32;;;;;;;14.43;3.90;;;;;;;;;;8286254;28;20047;-62
2023/05/26 20:04:34;;;;;;;10.57;3.40;;;;;;;;;;8289474;28;20017;-61
2023/05/26 20:08:35;;;;;;;12.95;3.83;;;;;;;;;;8287297;28;20036;-61
2023/05/26 20:12:35;;;;;;;14.77;3.70;;;;;;;;;;8290891;28;20652;-62
2023/05/26 20:16:35;;;;;;;13.43;3.90;;;;;;;;;;8288738;28;20060;-62
2023/05/26 20:20:35;;;;;;;15.10;4.20;;;;;;;;;;8291063;28;20287;-62
2023/05/26 20:24:36;;;;;;;13.98;3.70;;;;;;;;;;8280119;28;20108;-61
2023/05/26 20:28:36;;;;;;;11.90;3.90;;;;;;;;;;8290472;28;20032;-61
2023/05/26 20:32:37;;;;;;;11.57;3.40;;;;;;;;;;8291319;28;20467;-61
2023/05/26 20:36:37;;;;;;;15.00;4.38;;;;;;;;;;8292848;28;20483;-61
2023/05/26 20:40:37;;;;;;;13.15;4.20;;;;;;;;;;8292267;28;20216;-61
2023/05/26 20:44:37;;;;;;;10.93;3.65;;;;;;;;;;8292275;28;20029;-62
2023/05/26 20:48:37;;;;;;;14.98;4.22;;;;;;;;;;8289722;28;20138;-61
2023/05/26 20:52:38;;;;;;;13.40;3.83;;;;;;;;;;8289454;28;20028;-61
2023/05/26 20:56:38;;;;;;;14.67;4.10;;;;;;;;;;8291457;28;20459;-62
2023/05/26 21:00:38;;;;;;;11.63;3.72;;;;;;;;;;8277516;28;20288;-62
2023/05/26 21:04:38;;;;;;;13.77;4.10;;;;;;;;;;8272374;28;20021;-62
2023/05/26 21:08:39;;;;;;;13.88;3.83;;;;;;;;;;8287180;28;20060;-62
2023/05/26 21:12:39;;;;;;;11.17;3.67;;;;;;;;;;8290357;28;20025;-62
2023/05/26 21:16:39;;;;;;;11.13;3.28;;;;;;;;;;8275884;28;20080;-61
2023/05/26 21:20:39;;;;;;;11.00;3.50;;;;;;;;;;8289975;28;20666;-62
2023/05/26 21:24:39;;;;;;;11.32;3.30;;;;;;;;;;8278626;28;20413;-62
2023/05/26 21:28:40;;;;;;;11.15;3.10;;;;;;;;;;8289890;28;20036;-61
2023/05/26 21:32:40;;;;;;;10.68;3.42;;;;;;;;;;8290691;28;20127;-61
2023/05/26 21:36:40;;;;;;;13.75;3.25;;;;;;;;;;8284468;28;20464;-61
2023/05/26 21:40:40;;;;;;;9.52;3.15;;;;;;;;;;8283619;28;20594;-62
2023/05/26 21:44:41;;;;;;;10.43;3.03;;;;;;;;;;8277165;28;20029;-62
2023/05/26 21:48:41;;;;;;;13.43;3.23;;;;;;;;;;8292166;28;20132;-61
2023/05/26 21:52:41;;;;;;;11.37;3.23;;;;;;;;;;8294915;28;20275;-61
2023/05/26 21:56:41;;;;;;;11.27;2.95;;;;;;;;;;8296943;28;20029;-61
2023/05/26 22:00:42;;;;;;;11.77;3.05;;;;;;;;;;8295051;28;20041;-62
2023/05/26 22:04:42;;;;;;;6.47;2.90;;;;;;;;;;8296610;28;20029;-61
2023/05/26 22:08:42;;;;;;;9.25;3.00;;;;;;;;;;8299006;28;20279;-61
2023/05/26 22:12:42;;;;;;;9.15;2.53;;;;;;;;;;8297538;28;20181;-61
2023/05/26 22:16:42;;;;;;;8.52;3.00;;;;;;;;;;8297804;28;20047;-62
2023/05/26 22:20:42;;;;;;;10.82;2.75;;;;;;;;;;8294484;28;20029;-61
2023/05/26 22:24:43;;;;;;;11.32;2.75;;;;;;;;;;8296178;28;20029;-61
2023/05/26 22:28:43;;;;;;;8.57;2.67;;;;;;;;;;8295677;28;20437;-62
2023/05/26 22:32:43;;;;;;;11.00;2.93;;;;;;;;;;8296167;28;20033;-61
2023/05/26 22:36:44;;;;;;;7.38;2.38;;;;;;;;;;8293079;28;20080;-62
2023/05/26 22:40:44;;;;;;;9.97;2.70;;;;;;;;;;8297079;28;20102;-61
2023/05/26 22:44:44;;;;;;;7.97;2.50;;;;;;;;;;8290637;28;20276;-61
2023/05/26 22:48:44;;;;;;;10.13;2.50;;;;;;;;;;8294635;28;20294;-62
2023/05/26 22:52:45;;;;;;;6.85;2.40;;;;;;;;;;8300299;28;20099;-61
2023/05/26 22:56:45;;;;;;;6.90;2.20;;;;;;;;;;8304487;28;20159;-62
2023/05/26 23:00:45;;;;;;;8.68;2.53;;;;;;;;;;8301491;28;20132;-61
2023/05/26 23:04:45;;;;;;;10.85;3.10;;;;;;;;;;8298392;28;20021;-61
2023/05/26 23:08:46;;;;;;;10.50;2.60;;;;;;;;;;8300184;28;20034;-61
2023/05/26 23:12:46;;;;;;;9.23;2.40;;;;;;;;;;8301289;28;20037;-61
2023/05/26 23:16:47;;;;;;;8.70;2.55;;;;;;;;;;8302579;28;20705;-61
2023/05/26 23:20:47;;;;;;;7.63;2.28;;;;;;;;;;8302506;28;20765;-61
2023/05/26 23:24:48;;;;;;;7.57;2.42;;;;;;;;;;8302651;28;20025;-62
2023/05/26 23:28:48;;;;;;;10.55;2.65;;;;;;;;;;8301924;28;20057;-61
2023/05/26 23:32:48;;;;;;;7.45;2.20;;;;;;;;;;8302919;28;20032;-61
2023/05/26 23:36:48;;;;;;;7.65;2.65;;;;;;;;;;8301836;28;20037;-62
2023/05/26 23:40:48;;;;;;;7.53;2.47;;;;;;;;;;8300069;28;20808;-61
2023/05/26 23:44:49;;;;;;;8.68;2.70;;;;;;;;;;8301161;28;21051;-61
2023/05/26 23:48:49;;;;;;;7.53;2.30;;;;;;;;;;8302172;28;20041;-61
2023/05/26 23:52:49;;;;;;;6.85;2.30;;;;;;;;;;8303475;28;20013;-61
2023/05/26 23:56:50;;;;;;;7.25;2.70;;;;;;;;;;8302283;28;20025;-61
